createdAt,value
2022-11-07T00:01:38.374Z,99607.78
2022-11-07T00:04:05.071Z,99621.88
2022-11-07T00:06:31.663Z,99615.22
2022-11-07T00:08:58.997Z,99616.63
2022-11-07T00:11:25.417Z,99611.16
2022-11-07T00:13:51.802Z,99604.34
2022-11-07T00:16:19.845Z,99609.72
2022-11-07T00:18:46.373Z,99603.41
2022-11-07T00:21:13.668Z,99605.50
2022-11-07T00:23:41.609Z,99612.53
2022-11-07T00:26:10.936Z,99609.88
2022-11-07T00:28:39.459Z,99611.06
2022-11-07T00:31:08.371Z,99616.91
2022-11-07T00:33:34.847Z,99606.94
2022-11-07T00:36:03.291Z,99614.38
2022-11-07T00:38:30.355Z,99607.97
2022-11-07T00:40:59.278Z,99625.66
2022-11-07T00:43:26.697Z,99621.44
2022-11-07T00:45:54.481Z,99623.44
2022-11-07T00:48:21.793Z,99627.09
2022-11-07T00:50:49.132Z,99620.19
2022-11-07T00:53:16.287Z,99624.03
2022-11-07T00:55:43.119Z,99616.28
2022-11-07T00:58:13.863Z,99621.63
2022-11-07T01:00:48.469Z,99623.03
2022-11-07T01:03:33.610Z,99621.19
2022-11-07T01:06:02.038Z,99617.81
2022-11-07T01:08:29.583Z,99617.38
2022-11-07T01:10:58.275Z,99615.53
2022-11-07T01:13:26.215Z,99610.63
2022-11-07T01:15:53.163Z,99605.81
2022-11-07T01:18:19.925Z,99603.13
2022-11-07T01:20:47.936Z,99604.25
2022-11-07T01:23:16.045Z,99598.59
2022-11-07T01:25:44.660Z,99593.53
2022-11-07T01:28:11.720Z,99587.19
2022-11-07T01:30:41.772Z,99583.13
2022-11-07T01:33:08.431Z,99572.25
2022-11-07T01:35:35.941Z,99582.69
2022-11-07T01:38:02.691Z,99572.94
2022-11-07T01:40:29.382Z,99573.63
2022-11-07T01:42:56.017Z,99579.16
2022-11-07T01:45:27.905Z,99600.00
2022-11-07T01:47:56.343Z,99603.69
2022-11-07T01:50:24.766Z,99599.84
2022-11-07T01:52:52.674Z,99597.31
2022-11-07T01:55:32.021Z,99598.47
2022-11-07T01:58:04.851Z,99606.66
2022-11-07T02:00:32.257Z,99603.69
2022-11-07T02:03:06.219Z,99611.72
2022-11-07T02:05:35.720Z,99607.34
2022-11-07T02:08:05.198Z,99604.00
2022-11-07T02:10:32.466Z,99593.16
2022-11-07T02:12:59.575Z,99592.38
2022-11-07T02:15:26.849Z,99592.81
2022-11-07T02:17:54.123Z,99596.03
2022-11-07T02:20:29.455Z,99587.63
2022-11-07T02:23:01.574Z,99578.34
2022-11-07T02:25:29.728Z,99575.53
2022-11-07T02:28:02.296Z,99588.50
2022-11-07T02:30:33.641Z,99585.97
2022-11-07T02:33:01.432Z,99584.97
2022-11-07T02:35:45.689Z,99585.97
2022-11-07T02:38:31.103Z,99578.22
2022-11-07T02:41:01.073Z,99586.25
2022-11-07T02:43:29.627Z,99582.88
2022-11-07T02:45:59.260Z,99592.53
2022-11-07T02:48:41.271Z,99585.63
2022-11-07T02:51:07.811Z,99586.63
2022-11-07T02:53:34.716Z,99585.53
2022-11-07T02:56:01.303Z,99579.34
2022-11-07T02:58:27.760Z,99575.97
2022-11-07T03:00:55.274Z,99575.84
2022-11-07T03:03:21.870Z,99576.88
2022-11-07T03:05:48.408Z,99573.91
2022-11-07T03:08:14.866Z,99572.50
2022-11-07T03:10:41.298Z,99581.94
2022-11-07T03:13:07.797Z,99583.88
2022-11-07T03:15:34.425Z,99587.13
2022-11-07T03:18:00.918Z,99588.56
2022-11-07T03:20:27.505Z,99583.88
2022-11-07T03:22:54.034Z,99590.38
2022-11-07T03:25:20.546Z,99593.31
2022-11-07T03:27:50.728Z,99603.91
2022-11-07T03:30:17.633Z,99610.38
2022-11-07T03:32:44.268Z,99616.31
2022-11-07T03:35:10.987Z,99606.19
2022-11-07T03:37:37.692Z,99617.28
2022-11-07T03:40:04.660Z,99615.22
2022-11-07T03:42:31.739Z,99616.31
2022-11-07T03:44:58.335Z,99631.63
2022-11-07T03:47:24.793Z,99627.16
2022-11-07T03:49:51.199Z,99628.56
2022-11-07T03:52:17.669Z,99645.69
2022-11-07T03:54:44.284Z,99642.47
2022-11-07T03:57:10.716Z,99642.63
2022-11-07T03:59:37.114Z,99650.38
2022-11-07T04:02:03.719Z,99646.16
2022-11-07T04:04:30.304Z,99655.03
2022-11-07T04:06:57.801Z,99659.13
2022-11-07T04:09:24.198Z,99663.34
2022-11-07T04:12:09.285Z,99667.56
2022-11-07T04:14:54.589Z,99676.28
2022-11-07T04:17:21.230Z,99690.09
2022-11-07T04:19:54.737Z,99675.44
2022-11-07T04:22:22.560Z,99678.78
2022-11-07T04:24:49.078Z,99671.97
2022-11-07T04:27:35.416Z,99677.03
2022-11-07T04:30:21.655Z,99676.78
2022-11-07T04:32:56.928Z,99696.66
2022-11-07T04:35:29.641Z,99700.03
2022-11-07T04:37:56.224Z,99706.38
2022-11-07T04:40:22.659Z,99704.94
2022-11-07T04:42:50.362Z,99705.22
2022-11-07T04:45:17.530Z,99699.56
2022-11-07T04:47:44.264Z,99700.56
2022-11-07T04:50:15.049Z,99708.31
2022-11-07T04:52:41.742Z,99698.69
2022-11-07T04:55:17.783Z,99707.19
2022-11-07T04:57:44.444Z,99702.09
2022-11-07T05:00:11.364Z,99707.03
2022-11-07T05:02:37.860Z,99706.94
2022-11-07T05:05:04.604Z,99715.00
2022-11-07T05:07:31.049Z,99720.94
2022-11-07T05:09:57.613Z,99717.56
2022-11-07T05:12:25.275Z,99712.38
2022-11-07T05:14:51.668Z,99711.31
2022-11-07T05:17:18.367Z,99720.25
2022-11-07T05:19:47.744Z,99731.13
2022-11-07T05:22:32.758Z,99724.47
2022-11-07T05:24:59.116Z,99730.69
2022-11-07T05:27:26.797Z,99734.09
2022-11-07T05:29:53.602Z,99734.47
2022-11-07T05:32:20.243Z,99738.41
2022-11-07T05:34:46.806Z,99737.31
2022-11-07T05:37:13.792Z,99739.28
2022-11-07T05:39:40.581Z,99735.47
2022-11-07T05:42:07.289Z,99744.97
2022-11-07T05:44:33.696Z,99743.09
2022-11-07T05:47:02.131Z,99739.00
2022-11-07T05:49:28.697Z,99738.47
2022-11-07T05:51:55.236Z,99741.84
2022-11-07T05:54:21.704Z,99744.00
2022-11-07T05:56:48.171Z,99751.59
2022-11-07T05:59:15.271Z,99748.91
2022-11-07T06:01:42.015Z,99750.63
2022-11-07T06:04:08.525Z,99747.53
2022-11-07T06:06:34.954Z,99745.72
2022-11-07T06:09:09.143Z,99754.47
2022-11-07T06:11:35.611Z,99760.25
2022-11-07T06:14:04.980Z,99754.63
2022-11-07T06:16:31.606Z,99770.13
2022-11-07T06:18:57.987Z,99762.78
2022-11-07T06:21:24.602Z,99770.81
2022-11-07T06:23:51.083Z,99760.56
2022-11-07T06:26:17.524Z,99774.06
2022-11-07T06:28:43.942Z,99774.19
2022-11-07T06:31:11.147Z,99770.25
2022-11-07T06:33:37.527Z,99767.84
2022-11-07T06:36:08.717Z,99773.94
2022-11-07T06:38:36.183Z,99765.47
2022-11-07T06:41:09.982Z,99771.78
2022-11-07T06:43:36.993Z,99768.50
2022-11-07T06:46:08.871Z,99786.25
2022-11-07T06:48:35.298Z,99796.91
2022-11-07T06:51:04.873Z,99802.34
2022-11-07T06:53:31.876Z,99794.34
2022-11-07T06:56:02.742Z,99796.13
2022-11-07T06:58:29.257Z,99807.53
2022-11-07T07:01:04.217Z,99818.13
2022-11-07T07:03:32.004Z,99810.16
2022-11-07T07:06:02.836Z,99816.75
2022-11-07T07:08:29.517Z,99820.84
2022-11-07T07:10:56.286Z,99831.50
2022-11-07T07:13:23.198Z,99822.38
2022-11-07T07:15:57.596Z,99829.25
2022-11-07T07:18:25.758Z,99833.19
2022-11-07T07:20:53.240Z,99828.91
2022-11-07T07:23:20.591Z,99825.88
2022-11-07T07:25:49.539Z,99824.53
2022-11-07T07:28:16.140Z,99822.00
2022-11-07T07:30:47.137Z,99834.78
2022-11-07T07:33:17.298Z,99836.19
2022-11-07T07:35:43.937Z,99847.00
2022-11-07T07:38:11.476Z,99847.25
2022-11-07T07:40:38.910Z,99835.47
2022-11-07T07:43:05.308Z,99839.09
2022-11-07T07:45:31.812Z,99841.31
2022-11-07T07:48:02.479Z,99843.78
2022-11-07T07:50:28.983Z,99848.75
2022-11-07T07:52:57.316Z,99837.34
2022-11-07T07:55:24.392Z,99837.63
2022-11-07T07:57:51.131Z,99840.72
2022-11-07T08:00:17.957Z,99838.59
2022-11-07T08:02:44.496Z,99836.06
2022-11-07T08:05:12.736Z,99828.22
2022-11-07T08:07:48.913Z,99827.00
2022-11-07T08:10:40.186Z,99831.28
2022-11-07T08:13:02.410Z,99839.47
2022-11-07T08:15:30.263Z,99832.06
2022-11-07T08:18:00.946Z,99840.84
2022-11-07T08:20:28.011Z,99832.44
2022-11-07T08:23:06.901Z,99843.16
2022-11-07T08:25:36.278Z,99837.13
2022-11-07T08:28:02.736Z,99840.06
2022-11-07T08:30:31.498Z,99845.38
2022-11-07T08:33:03.150Z,99842.13
2022-11-07T08:35:30.689Z,99842.94
2022-11-07T08:37:57.980Z,99842.06
2022-11-07T08:40:24.880Z,99845.13
2022-11-07T08:42:51.732Z,99842.50
2022-11-07T08:45:18.904Z,99846.25
2022-11-07T08:47:45.495Z,99836.84
2022-11-07T08:50:11.940Z,99830.59
2022-11-07T08:52:38.562Z,99826.09
2022-11-07T08:55:05.562Z,99834.06
2022-11-07T08:57:32.479Z,99837.25
2022-11-07T08:59:58.912Z,99843.63
2022-11-07T09:03:08.358Z,99841.94
2022-11-07T09:05:11.651Z,99841.59
2022-11-07T09:07:39.340Z,99851.84
2022-11-07T09:10:11.663Z,99837.84
2022-11-07T09:12:45.665Z,99833.00
2022-11-07T09:15:12.066Z,99838.59
2022-11-07T09:17:38.799Z,99840.50
2022-11-07T09:20:11.371Z,99839.47
2022-11-07T09:22:37.784Z,99831.00
2022-11-07T09:25:04.521Z,99840.97
2022-11-07T09:27:30.927Z,99854.81
2022-11-07T09:29:57.307Z,99850.47
2022-11-07T09:32:44.004Z,99844.22
2022-11-07T09:35:10.624Z,99848.81
2022-11-07T09:37:41.729Z,99834.91
2022-11-07T09:40:24.657Z,99838.09
2022-11-07T09:43:04.610Z,99840.19
2022-11-07T09:45:31.225Z,99828.66
2022-11-07T09:48:02.256Z,99828.66
2022-11-07T09:50:36.225Z,99834.56
2022-11-07T09:53:18.604Z,99819.78
2022-11-07T09:55:52.124Z,99818.44
2022-11-07T09:58:45.357Z,99829.63
2022-11-07T10:01:14.651Z,99830.72
2022-11-07T10:03:52.899Z,99829.47
2022-11-07T10:06:36.220Z,99830.25
2022-11-07T10:09:17.396Z,99836.81
2022-11-07T10:12:09.256Z,99841.81
2022-11-07T10:14:39.478Z,99838.81
2022-11-07T10:17:29.341Z,99829.63
2022-11-07T10:20:05.628Z,99829.72
2022-11-07T10:22:53.308Z,99829.81
2022-11-07T10:25:57.541Z,99827.97
2022-11-07T10:28:25.606Z,99842.41
2022-11-07T10:30:53.024Z,99834.81
2022-11-07T10:33:36.710Z,99836.88
2022-11-07T10:36:09.628Z,99845.88
2022-11-07T10:38:40.571Z,99836.84
2022-11-07T10:41:28.687Z,99837.50
2022-11-07T10:44:00.911Z,99841.88
2022-11-07T10:46:43.113Z,99836.66
2022-11-07T10:49:26.950Z,99837.41
2022-11-07T10:52:17.791Z,99837.00
2022-11-07T10:54:45.140Z,99836.81
2022-11-07T10:57:23.387Z,99836.34
2022-11-07T10:59:50.191Z,99832.09
2022-11-07T11:02:16.847Z,99839.06
2022-11-07T11:04:51.021Z,99830.50
2022-11-07T11:07:21.819Z,99832.56
2022-11-07T11:09:56.117Z,99831.41
2022-11-07T11:12:26.917Z,99827.78
2022-11-07T11:15:14.202Z,99816.41
2022-11-07T11:17:41.233Z,99819.16
2022-11-07T11:20:39.821Z,99826.50
2022-11-07T11:23:19.609Z,99825.09
2022-11-07T11:25:48.839Z,99823.16
2022-11-07T11:28:42.215Z,99818.91
2022-11-07T11:31:24.904Z,99827.88
2022-11-07T11:33:56.746Z,99815.75
2022-11-07T11:36:25.573Z,99816.38
2022-11-07T11:38:55.558Z,99807.63
2022-11-07T11:41:29.224Z,99811.41
2022-11-07T11:44:01.212Z,99813.41
2022-11-07T11:46:31.101Z,99807.91
2022-11-07T11:49:23.706Z,99813.56
2022-11-07T11:51:53.265Z,99819.50
2022-11-07T11:54:19.756Z,99808.47
2022-11-07T11:57:01.624Z,99809.59
2022-11-07T11:59:35.337Z,99825.84
2022-11-07T12:02:05.089Z,99814.03
2022-11-07T12:04:39.574Z,99822.78
2022-11-07T12:07:26.064Z,99828.56
2022-11-07T12:09:58.951Z,99836.22
2022-11-07T12:12:48.585Z,99830.38
2022-11-07T12:15:36.944Z,99828.78
2022-11-07T12:18:15.715Z,99824.13
2022-11-07T12:21:13.242Z,99819.22
2022-11-07T12:24:11.014Z,99819.19
2022-11-07T12:26:45.013Z,99820.56
2022-11-07T12:29:20.680Z,99814.47
2022-11-07T12:31:49.983Z,99818.09
2022-11-07T12:34:48.818Z,99820.03
2022-11-07T12:37:15.329Z,99816.50
2022-11-07T12:40:01.964Z,99809.69
2022-11-07T12:43:07.359Z,99816.63
2022-11-07T12:45:45.623Z,99801.53
2022-11-07T12:48:37.742Z,99813.91
2022-11-07T12:51:10.304Z,99803.19
2022-11-07T12:54:18.624Z,99815.59
2022-11-07T12:56:48.082Z,99808.03
2022-11-07T12:59:21.705Z,99811.13
2022-11-07T13:01:59.250Z,99807.34
2022-11-07T13:04:58.301Z,99814.56
2022-11-07T13:07:51.272Z,99817.41
2022-11-07T13:10:28.680Z,99810.72
2022-11-07T13:13:21.342Z,99810.72
2022-11-07T13:16:13.990Z,99805.41
2022-11-07T13:18:34.541Z,99807.34
2022-11-07T13:21:02.621Z,99811.13
2022-11-07T13:23:41.504Z,99811.19
2022-11-07T13:26:26.213Z,99817.09
2022-11-07T13:29:01.320Z,99811.91
2022-11-07T13:31:38.724Z,99820.19
2022-11-07T13:34:19.610Z,99829.34
2022-11-07T13:36:47.791Z,99833.88
2022-11-07T13:39:15.001Z,99828.59
2022-11-07T13:41:44.527Z,99824.09
2022-11-07T13:44:18.936Z,99833.50
2022-11-07T13:46:49.058Z,99826.50
2022-11-07T13:49:20.985Z,99827.19
2022-11-07T13:51:51.228Z,99829.75
2022-11-07T13:54:27.688Z,99822.22
2022-11-07T13:57:07.373Z,99824.25
2022-11-07T13:59:44.129Z,99830.66
2022-11-07T14:02:22.594Z,99828.69
2022-11-07T14:05:14.669Z,99826.28
2022-11-07T14:07:40.292Z,99833.84
2022-11-07T14:10:16.397Z,99836.16
2022-11-07T14:12:43.460Z,99833.06
2022-11-07T14:15:14.663Z,99836.22
2022-11-07T14:17:41.177Z,99843.78
2022-11-07T14:20:19.775Z,99842.44
2022-11-07T14:22:50.630Z,99852.78
2022-11-07T14:25:31.634Z,99845.28
2022-11-07T14:27:59.244Z,99836.69
2022-11-07T14:30:27.698Z,99846.50
2022-11-07T14:32:56.644Z,99847.25
2022-11-07T14:35:26.609Z,99851.66
2022-11-07T14:37:53.036Z,99848.56
2022-11-07T14:40:19.714Z,99853.06
2022-11-07T14:42:46.661Z,99849.41
2022-11-07T14:45:39.100Z,99843.53
2022-11-07T14:48:05.648Z,99845.41
2022-11-07T14:50:34.319Z,99833.78
2022-11-07T14:53:09.254Z,99844.16
2022-11-07T14:55:57.431Z,99844.63
2022-11-07T14:58:25.161Z,99840.13
2022-11-07T15:00:57.415Z,99839.94
2022-11-07T15:03:31.460Z,99843.97
2022-11-07T15:05:58.183Z,99839.03
2022-11-07T15:08:34.706Z,99848.06
2022-11-07T15:11:18.617Z,99843.44
2022-11-07T15:13:47.656Z,99847.72
2022-11-07T15:16:16.816Z,99843.63
2022-11-07T15:18:45.015Z,99843.97
2022-11-07T15:21:33.972Z,99843.78
2022-11-07T15:24:01.725Z,99840.72
2022-11-07T15:26:32.814Z,99840.66
2022-11-07T15:29:20.058Z,99848.78
2022-11-07T15:31:48.612Z,99849.78
2022-11-07T15:34:25.305Z,99845.34
2022-11-07T15:37:11.185Z,99847.75
2022-11-07T15:39:37.932Z,99843.81
2022-11-07T15:42:04.517Z,99838.53
2022-11-07T15:44:31.346Z,99838.78
2022-11-07T15:47:05.678Z,99840.66
2022-11-07T15:49:33.949Z,99838.72
2022-11-07T15:52:01.098Z,99833.00
2022-11-07T15:54:27.826Z,99829.75
2022-11-07T15:56:59.233Z,99838.97
2022-11-07T15:59:30.418Z,99838.59
2022-11-07T16:01:57.263Z,99840.81
2022-11-07T16:04:23.879Z,99834.25
2022-11-07T16:06:50.370Z,99834.03
2022-11-07T16:09:19.161Z,99831.03
2022-11-07T16:11:46.663Z,99832.03
2022-11-07T16:14:42.426Z,99836.13
2022-11-07T16:17:06.702Z,99843.81
2022-11-07T16:19:33.072Z,99832.22
2022-11-07T16:21:59.423Z,99841.66
2022-11-07T16:24:25.999Z,99845.38
2022-11-07T16:26:52.485Z,99841.38
2022-11-07T16:29:19.065Z,99852.47
2022-11-07T16:31:45.490Z,99846.06
2022-11-07T16:34:12.116Z,99860.97
2022-11-07T16:36:39.275Z,99857.97
2022-11-07T16:39:07.940Z,99860.41
2022-11-07T16:41:34.615Z,99851.09
2022-11-07T16:44:01.036Z,99852.94
2022-11-07T16:46:28.811Z,99861.78
2022-11-07T16:49:04.604Z,99849.09
2022-11-07T16:51:31.001Z,99848.56
2022-11-07T16:53:57.420Z,99853.66
2022-11-07T16:56:30.325Z,99859.91
2022-11-07T16:58:57.689Z,99857.03
2022-11-07T17:01:25.278Z,99864.16
2022-11-07T17:03:52.445Z,99861.44
2022-11-07T17:06:31.246Z,99870.44
2022-11-07T17:09:07.158Z,99872.22
2022-11-07T17:11:37.720Z,99879.41
2022-11-07T17:14:04.132Z,99878.69
2022-11-07T17:16:34.744Z,99879.41
2022-11-07T17:19:01.641Z,99881.28
2022-11-07T17:21:32.682Z,99875.88
2022-11-07T17:24:00.650Z,99875.06
2022-11-07T17:26:30.093Z,99880.69
2022-11-07T17:28:58.170Z,99887.44
2022-11-07T17:31:24.866Z,99885.56
2022-11-07T17:33:51.583Z,99886.75
2022-11-07T17:36:37.156Z,99882.22
2022-11-07T17:39:11.393Z,99887.53
2022-11-07T17:41:40.312Z,99889.19
2022-11-07T17:44:06.754Z,99892.84
2022-11-07T17:46:35.543Z,99890.63
2022-11-07T17:49:09.465Z,99899.34
2022-11-07T17:51:36.886Z,99901.38
2022-11-07T17:54:04.165Z,99898.50
2022-11-07T17:56:31.478Z,99901.25
2022-11-07T17:59:00.117Z,99893.03
2022-11-07T18:01:31.282Z,99895.91
2022-11-07T18:03:58.149Z,99901.03
2022-11-07T18:06:25.390Z,99899.84
2022-11-07T18:08:55.633Z,99898.50
2022-11-07T18:11:24.723Z,99897.84
2022-11-07T18:13:52.093Z,99902.56
2022-11-07T18:16:21.344Z,99896.69
2022-11-07T18:18:48.156Z,99900.06
2022-11-07T18:21:17.228Z,99903.44
2022-11-07T18:23:43.874Z,99898.22
2022-11-07T18:26:21.877Z,99897.19
2022-11-07T18:28:51.833Z,99890.75
2022-11-07T18:31:20.293Z,99891.94
2022-11-07T18:33:47.420Z,99893.28
2022-11-07T18:36:17.588Z,99889.72
2022-11-07T18:38:45.586Z,99889.41
2022-11-07T18:41:13.991Z,99903.59
2022-11-07T18:43:40.390Z,99891.09
2022-11-07T18:46:09.355Z,99891.59
2022-11-07T18:48:37.793Z,99895.16
2022-11-07T18:51:09.555Z,99895.66
2022-11-07T18:53:35.931Z,99885.00
2022-11-07T18:56:07.066Z,99897.16
2022-11-07T18:58:34.975Z,99896.34
2022-11-07T19:01:13.046Z,99901.38
2022-11-07T19:03:40.617Z,99888.75
2022-11-07T19:06:09.504Z,99898.22
2022-11-07T19:08:38.100Z,99895.19
2022-11-07T19:11:07.196Z,99892.16
2022-11-07T19:13:39.938Z,99895.03
2022-11-07T19:16:07.905Z,99898.03
2022-11-07T19:18:35.746Z,99891.09
2022-11-07T19:21:03.814Z,99893.41
2022-11-07T19:23:31.183Z,99888.59
2022-11-07T19:25:57.845Z,99884.16
2022-11-07T19:28:25.296Z,99886.28
2022-11-07T19:30:53.826Z,99871.72
2022-11-07T19:33:20.710Z,99883.25
2022-11-07T19:35:47.422Z,99870.94
2022-11-07T19:38:24.324Z,99875.41
2022-11-07T19:40:50.766Z,99873.72
2022-11-07T19:43:17.443Z,99877.09
2022-11-07T19:45:44.187Z,99878.69
2022-11-07T19:48:11.852Z,99887.16
2022-11-07T19:50:39.057Z,99883.41
2022-11-07T19:53:07.044Z,99891.72
2022-11-07T19:55:36.613Z,99884.09
2022-11-07T19:58:03.544Z,99882.00
2022-11-07T20:00:30.517Z,99894.72
2022-11-07T20:02:57.056Z,99888.56
2022-11-07T20:05:24.259Z,99894.13
2022-11-07T20:07:57.053Z,99894.47
2022-11-07T20:10:27.041Z,99897.84
2022-11-07T20:12:54.772Z,99892.81
2022-11-07T20:15:22.759Z,99896.94
2022-11-07T20:17:53.499Z,99898.72
2022-11-07T20:20:21.305Z,99899.22
2022-11-07T20:22:47.845Z,99887.06
2022-11-07T20:25:14.657Z,99890.16
2022-11-07T20:27:41.221Z,99895.81
2022-11-07T20:30:08.280Z,99894.47
2022-11-07T20:32:40.196Z,99895.09
2022-11-07T20:35:07.873Z,99905.84
2022-11-07T20:37:35.599Z,99903.44
2022-11-07T20:40:02.057Z,99900.91
2022-11-07T20:42:29.474Z,99902.91
2022-11-07T20:44:55.886Z,99898.94
2022-11-07T20:47:23.784Z,99901.09
2022-11-07T20:49:51.151Z,99907.81
2022-11-07T20:52:17.842Z,99909.59
2022-11-07T20:54:44.291Z,99910.22
2022-11-07T20:57:10.729Z,99907.56
2022-11-07T20:59:37.439Z,99905.16
2022-11-07T21:02:04.313Z,99903.63
2022-11-07T21:04:49.854Z,99907.31
2022-11-07T21:07:22.572Z,99902.34
2022-11-07T21:09:50.080Z,99902.91
2022-11-07T21:12:16.529Z,99900.56
2022-11-07T21:14:42.888Z,99900.22
2022-11-07T21:17:09.783Z,99891.84
2022-11-07T21:19:36.518Z,99894.97
2022-11-07T21:22:04.003Z,99901.75
2022-11-07T21:24:31.428Z,99894.00
2022-11-07T21:26:58.063Z,99911.09
2022-11-07T21:29:29.472Z,99906.31
2022-11-07T21:31:57.103Z,99900.25
2022-11-07T21:34:23.823Z,99911.72
2022-11-07T21:36:50.386Z,99906.59
2022-11-07T21:39:19.026Z,99914.34
2022-11-07T21:41:45.415Z,99916.63
2022-11-07T21:44:15.916Z,99908.16
2022-11-07T21:46:42.287Z,99920.47
2022-11-07T21:49:08.757Z,99912.69
2022-11-07T21:51:35.749Z,99913.94
2022-11-07T21:54:03.605Z,99910.38
2022-11-07T21:56:32.563Z,99918.59
2022-11-07T21:59:01.525Z,99917.75
2022-11-07T22:01:29.000Z,99915.38
2022-11-07T22:04:12.254Z,99918.53
2022-11-07T22:06:41.741Z,99914.38
2022-11-07T22:09:09.379Z,99924.81
2022-11-07T22:11:36.125Z,99919.69
2022-11-07T22:14:02.932Z,99920.13
2022-11-07T22:16:32.918Z,99931.91
2022-11-07T22:19:00.271Z,99922.44
2022-11-07T22:21:27.198Z,99920.31
2022-11-07T22:23:53.634Z,99920.53
2022-11-07T22:26:26.983Z,99918.59
2022-11-07T22:28:54.044Z,99913.22
2022-11-07T22:31:30.087Z,99907.63
2022-11-07T22:33:58.257Z,99905.97
2022-11-07T22:36:25.039Z,99904.34
2022-11-07T22:38:52.516Z,99899.06
2022-11-07T22:41:21.483Z,99899.75
2022-11-07T22:43:48.535Z,99903.31
2022-11-07T22:46:17.908Z,99898.41
2022-11-07T22:48:45.533Z,99897.84
2022-11-07T22:51:14.953Z,99897.47
2022-11-07T22:53:41.600Z,99896.00
2022-11-07T22:56:12.309Z,99896.00
2022-11-07T22:58:41.432Z,99899.94
2022-11-07T23:01:15.657Z,99899.84
2022-11-07T23:03:42.158Z,99891.72
2022-11-07T23:06:10.138Z,99906.47
2022-11-07T23:08:37.190Z,99896.63
2022-11-07T23:11:44.134Z,99899.75
2022-11-07T23:14:00.468Z,99904.53
2022-11-07T23:16:38.588Z,99902.16
2022-11-07T23:19:12.135Z,99900.75
2022-11-07T23:21:39.032Z,99899.84
2022-11-07T23:24:05.995Z,99900.88
2022-11-07T23:26:36.068Z,99894.16
2022-11-07T23:29:10.033Z,99886.13
2022-11-07T23:31:37.346Z,99886.81
2022-11-07T23:34:08.688Z,99884.81
2022-11-07T23:36:35.755Z,99884.97
2022-11-07T23:39:06.833Z,99874.63
2022-11-07T23:41:34.740Z,99884.66
2022-11-07T23:44:01.535Z,99890.88
2022-11-07T23:46:46.758Z,99883.97
2022-11-07T23:49:31.850Z,99884.06
2022-11-07T23:52:03.819Z,99880.47
2022-11-07T23:54:49.059Z,99883.69
2022-11-07T23:57:15.500Z,99885.50
